createdAt,value
2022-10-12T00:02:02.471Z,90.59
2022-10-12T00:07:04.191Z,90.53
2022-10-12T00:12:06.013Z,90.65
2022-10-12T00:17:07.706Z,90.66
2022-10-12T00:22:09.436Z,90.66
2022-10-12T00:27:11.579Z,90.84
2022-10-12T00:32:13.251Z,90.83
2022-10-12T00:37:14.969Z,90.99
2022-10-12T00:42:20.624Z,90.94
2022-10-12T00:47:37.927Z,91.14
2022-10-12T00:52:49.987Z,91.22
2022-10-12T00:57:55.294Z,91.51
2022-10-12T01:02:58.180Z,91.79
2022-10-12T01:08:00.890Z,91.78
2022-10-12T01:13:03.649Z,91.72
2022-10-12T01:18:27.640Z,91.86
2022-10-12T01:23:38.572Z,91.95
2022-10-12T01:29:19.174Z,91.96
2022-10-12T01:34:33.288Z,91.93
2022-10-12T01:39:43.654Z,91.90
2022-10-12T01:44:45.329Z,91.93
2022-10-12T01:49:46.999Z,92.12
2022-10-12T01:55:02.929Z,91.99
2022-10-12T02:00:16.867Z,92.03
2022-10-12T02:05:45.874Z,92.10
2022-10-12T02:11:02.839Z,92.06
2022-10-12T02:16:10.463Z,92.29
2022-10-12T02:21:16.336Z,92.58
2022-10-12T02:26:19.716Z,92.66
2022-10-12T02:31:46.408Z,92.88
2022-10-12T02:37:07.347Z,93.12
2022-10-12T02:42:15.486Z,93.49
2022-10-12T02:47:19.107Z,93.23
2022-10-12T02:52:21.332Z,93.23
2022-10-12T02:57:23.163Z,93.04
2022-10-12T03:02:24.887Z,93.14
2022-10-12T03:07:26.665Z,93.22
2022-10-12T03:12:28.285Z,93.17
2022-10-12T03:17:30.081Z,93.18
2022-10-12T03:22:31.766Z,93.23
2022-10-12T03:27:33.409Z,93.36
2022-10-12T03:32:35.073Z,93.25
2022-10-12T03:37:37.142Z,93.28
2022-10-12T03:42:39.134Z,93.53
2022-10-12T03:47:41.132Z,93.50
2022-10-12T03:52:43.205Z,93.63
2022-10-12T03:57:45.896Z,93.50
2022-10-12T04:02:47.637Z,93.48
2022-10-12T04:07:49.863Z,93.43
2022-10-12T04:12:51.764Z,93.49
2022-10-12T04:17:53.466Z,93.57
2022-10-12T04:22:55.180Z,93.65
2022-10-12T04:27:56.867Z,93.80
2022-10-12T04:32:58.579Z,93.80
2022-10-12T04:38:00.279Z,93.71
2022-10-12T04:43:02.076Z,93.64
2022-10-12T04:48:03.970Z,93.54
2022-10-12T04:53:05.651Z,93.34
2022-10-12T04:58:07.352Z,92.89
2022-10-12T05:03:09.072Z,93.28
2022-10-12T05:08:10.719Z,93.51
2022-10-12T05:13:12.984Z,93.48
2022-10-12T05:18:14.690Z,93.64
2022-10-12T05:23:16.394Z,93.81
2022-10-12T05:28:18.109Z,94.08
2022-10-12T05:33:19.925Z,94.48
2022-10-12T05:38:21.752Z,94.57
2022-10-12T05:43:23.470Z,94.58
2022-10-12T05:48:25.144Z,94.70
2022-10-12T05:53:27.440Z,94.67
2022-10-12T05:58:30.612Z,94.63
2022-10-12T06:03:35.025Z,94.48
2022-10-12T06:08:37.324Z,94.51
2022-10-12T06:13:39.435Z,94.51
2022-10-12T06:18:41.212Z,94.71
2022-10-12T06:23:42.940Z,94.78
2022-10-12T06:28:44.744Z,94.70
2022-10-12T06:33:46.472Z,94.77
2022-10-12T06:38:48.196Z,94.84
2022-10-12T06:43:49.945Z,95.07
2022-10-12T06:48:51.643Z,95.34
2022-10-12T06:53:56.631Z,95.49
2022-10-12T06:58:58.429Z,95.21
2022-10-12T07:04:01.022Z,95.13
2022-10-12T07:09:02.905Z,94.97
2022-10-12T07:14:04.572Z,95.11
2022-10-12T07:19:06.541Z,95.08
2022-10-12T07:24:12.326Z,95.06
2022-10-12T07:29:13.971Z,95.37
2022-10-12T07:34:15.656Z,95.24
2022-10-12T07:39:17.535Z,95.43
2022-10-12T07:44:21.028Z,95.37
2022-10-12T07:49:22.958Z,95.75
2022-10-12T07:54:29.160Z,95.49
2022-10-12T07:59:31.251Z,95.02
2022-10-12T08:04:32.963Z,94.92
2022-10-12T08:09:36.232Z,94.97
2022-10-12T08:14:38.673Z,95.04
2022-10-12T08:19:40.608Z,94.66
2022-10-12T08:24:42.474Z,94.32
2022-10-12T08:29:44.245Z,93.85
2022-10-12T08:34:45.927Z,93.33
2022-10-12T08:39:47.716Z,93.09
2022-10-12T08:45:08.470Z,92.60
2022-10-12T08:50:18.568Z,91.82
2022-10-12T08:55:46.417Z,91.36
2022-10-12T09:00:57.489Z,90.35
2022-10-12T09:06:22.224Z,89.98
2022-10-12T09:11:33.793Z,89.21
2022-10-12T09:16:41.670Z,88.86
2022-10-12T09:21:46.235Z,87.99
2022-10-12T09:26:52.267Z,87.53
2022-10-12T09:32:20.447Z,86.40
2022-10-12T09:37:26.359Z,85.74
2022-10-12T09:42:28.056Z,85.11
2022-10-12T09:47:33.987Z,84.58
2022-10-12T09:52:35.622Z,84.08
2022-10-12T09:57:41.634Z,83.30
2022-10-12T10:02:51.603Z,82.10
2022-10-12T10:08:12.560Z,81.59
2022-10-12T10:13:15.806Z,80.96
2022-10-12T10:18:20.532Z,79.94
2022-10-12T10:23:28.715Z,79.32
2022-10-12T10:28:33.486Z,78.97
2022-10-12T10:33:37.168Z,78.39
2022-10-12T10:38:56.142Z,77.55
2022-10-12T10:43:57.935Z,76.97
2022-10-12T10:49:21.387Z,76.06
2022-10-12T10:54:22.990Z,75.22
2022-10-12T10:59:40.515Z,74.78
2022-10-12T11:04:45.858Z,74.43
2022-10-12T11:09:54.147Z,74.23
2022-10-12T11:15:04.475Z,73.76
2022-10-12T11:20:37.137Z,73.59
2022-10-12T11:25:54.258Z,72.75
2022-10-12T11:30:56.091Z,72.41
2022-10-12T11:35:58.850Z,72.09
2022-10-12T11:41:34.514Z,71.56
2022-10-12T11:46:47.740Z,71.09
2022-10-12T11:51:52.188Z,70.83
2022-10-12T11:56:58.553Z,69.86
2022-10-12T12:02:19.256Z,69.43
2022-10-12T12:07:49.749Z,68.75
2022-10-12T12:13:11.693Z,68.11
2022-10-12T12:18:44.335Z,68.24
2022-10-12T12:23:54.856Z,67.71
2022-10-12T12:29:27.980Z,67.70
2022-10-12T12:34:29.720Z,67.66
2022-10-12T12:39:34.848Z,67.41
2022-10-12T12:44:44.567Z,67.30
2022-10-12T12:49:57.478Z,66.78
2022-10-12T12:55:14.560Z,66.67
2022-10-12T13:00:23.439Z,66.22
2022-10-12T13:05:39.441Z,65.70
2022-10-12T13:11:10.388Z,65.31
2022-10-12T13:17:29.990Z,65.36
2022-10-12T13:21:56.828Z,65.21
2022-10-12T13:27:04.844Z,65.15
2022-10-12T13:32:22.149Z,65.11
2022-10-12T13:37:31.363Z,64.99
2022-10-12T13:42:35.968Z,64.94
2022-10-12T13:47:42.562Z,65.02
2022-10-12T13:52:53.702Z,64.73
2022-10-12T13:57:55.411Z,64.03
2022-10-12T14:03:02.925Z,63.51
2022-10-12T14:08:16.054Z,63.89
2022-10-12T14:13:28.702Z,64.49
2022-10-12T14:18:45.340Z,64.93
2022-10-12T14:23:49.838Z,64.97
2022-10-12T14:28:52.550Z,65.36
2022-10-12T14:33:54.567Z,65.92
2022-10-12T14:39:13.108Z,66.43
2022-10-12T14:44:15.928Z,66.61
2022-10-12T14:49:21.017Z,66.95
2022-10-12T14:54:22.700Z,67.08
2022-10-12T14:59:24.448Z,67.04
2022-10-12T15:04:26.203Z,66.89
2022-10-12T15:09:27.969Z,67.23
2022-10-12T15:14:29.677Z,67.40
2022-10-12T15:19:31.380Z,67.59
2022-10-12T15:24:33.140Z,68.06
2022-10-12T15:29:34.832Z,68.62
2022-10-12T15:34:36.604Z,68.89
2022-10-12T15:39:38.414Z,69.33
2022-10-12T15:44:41.066Z,69.92
2022-10-12T15:49:42.758Z,70.35
2022-10-12T15:54:48.714Z,70.74
2022-10-12T15:59:52.604Z,71.05
2022-10-12T16:04:54.323Z,71.50
2022-10-12T16:09:56.090Z,71.83
2022-10-12T16:14:57.812Z,72.27
2022-10-12T16:19:59.465Z,72.65
2022-10-12T16:25:03.281Z,72.73
2022-10-12T16:30:07.298Z,73.34
2022-10-12T16:35:10.704Z,73.80
2022-10-12T16:40:13.756Z,74.18
2022-10-12T16:45:15.513Z,74.46
2022-10-12T16:50:21.750Z,74.67
2022-10-12T16:55:23.429Z,74.93
2022-10-12T17:00:25.303Z,75.17
2022-10-12T17:05:26.976Z,75.37
2022-10-12T17:10:28.790Z,75.53
2022-10-12T17:15:30.578Z,75.74
2022-10-12T17:20:32.207Z,76.32
2022-10-12T17:25:33.975Z,77.03
2022-10-12T17:30:38.350Z,77.64
2022-10-12T17:35:41.554Z,78.23
2022-10-12T17:40:43.284Z,78.51
2022-10-12T17:45:45.003Z,79.00
2022-10-12T17:50:46.678Z,79.42
2022-10-12T17:55:49.184Z,79.72
2022-10-12T18:00:51.160Z,80.01
2022-10-12T18:05:53.031Z,80.26
2022-10-12T18:10:54.738Z,80.50
2022-10-12T18:15:57.807Z,81.01
2022-10-12T18:20:59.650Z,80.99
2022-10-12T18:26:03.819Z,81.09
2022-10-12T18:31:06.380Z,81.37
2022-10-12T18:36:08.388Z,81.48
2022-10-12T18:41:13.202Z,81.71
2022-10-12T18:46:18.257Z,82.28
2022-10-12T18:51:32.376Z,82.31
2022-10-12T18:56:36.843Z,82.55
2022-10-12T19:01:38.549Z,82.85
2022-10-12T19:06:45.806Z,82.92
2022-10-12T19:11:47.528Z,83.14
2022-10-12T19:16:50.888Z,83.50
2022-10-12T19:21:53.990Z,83.70
2022-10-12T19:26:55.940Z,83.78
2022-10-12T19:31:57.696Z,84.17
2022-10-12T19:37:00.713Z,84.21
2022-10-12T19:42:02.395Z,84.71
2022-10-12T19:47:04.256Z,84.71
2022-10-12T19:52:05.891Z,84.51
2022-10-12T19:57:07.582Z,84.93
2022-10-12T20:02:10.574Z,85.25
2022-10-12T20:07:12.707Z,85.30
2022-10-12T20:12:14.464Z,85.75
2022-10-12T20:17:16.198Z,85.72
2022-10-12T20:22:18.796Z,85.48
2022-10-12T20:27:20.800Z,86.17
2022-10-12T20:32:22.500Z,85.92
2022-10-12T20:37:24.326Z,86.38
2022-10-12T20:42:26.689Z,86.55
2022-10-12T20:47:28.640Z,86.32
2022-10-12T20:52:30.357Z,86.45
2022-10-12T20:57:32.167Z,86.53
2022-10-12T21:02:33.896Z,86.91
2022-10-12T21:07:36.243Z,86.89
2022-10-12T21:12:38.019Z,87.04
2022-10-12T21:17:45.025Z,87.22
2022-10-12T21:22:46.735Z,87.17
2022-10-12T21:27:48.536Z,87.28
2022-10-12T21:32:50.208Z,87.24
2022-10-12T21:37:52.743Z,87.46
2022-10-12T21:42:54.469Z,87.35
2022-10-12T21:47:56.227Z,87.78
2022-10-12T21:53:02.168Z,87.41
2022-10-12T21:58:03.876Z,87.69
2022-10-12T22:03:05.756Z,88.02
2022-10-12T22:08:08.291Z,88.00
2022-10-12T22:13:10.143Z,88.38
2022-10-12T22:18:12.559Z,88.45
2022-10-12T22:23:14.374Z,88.40
2022-10-12T22:28:16.589Z,88.72
2022-10-12T22:33:18.469Z,88.74
2022-10-12T22:38:20.892Z,89.03
2022-10-12T22:43:22.928Z,89.18
2022-10-12T22:48:25.279Z,89.34
2022-10-12T22:53:29.359Z,89.92
2022-10-12T22:58:31.885Z,89.61
2022-10-12T23:03:34.945Z,89.44
2022-10-12T23:08:40.595Z,89.61
2022-10-12T23:13:48.436Z,89.71
2022-10-12T23:19:01.717Z,90.00
2022-10-12T23:24:06.693Z,90.03
2022-10-12T23:29:08.389Z,89.83
2022-10-12T23:34:15.995Z,89.76
2022-10-12T23:39:19.091Z,89.73
2022-10-12T23:44:20.871Z,89.93
2022-10-12T23:49:22.654Z,89.98
2022-10-12T23:54:26.035Z,90.08
2022-10-12T23:59:27.700Z,90.45
